sensor_id;sensor_type;location;lat;lon;timestamp;pressure;altitude;pressure_sealevel;temperature;humidity
8298;BME280;4187;42.778;23.242;2023-05-10T00:03:09;95556.78;;;9.94;100.00
8298;BME280;4187;42.778;23.242;2023-05-10T00:10:06;95547.19;;;9.84;100.00
8298;BME280;4187;42.778;23.242;2023-05-10T00:12:33;95543.56;;;9.85;100.00
8298;BME280;4187;42.778;23.242;2023-05-10T00:14:59;95543.84;;;9.82;100.00
8298;BME280;4187;42.778;23.242;2023-05-10T00:17:26;95541.38;;;9.90;100.00
8298;BME280;4187;42.778;23.242;2023-05-10T00:19:53;95532.66;;;9.89;100.00
8298;BME280;4187;42.778;23.242;2023-05-10T00:22:20;95548.31;;;9.81;100.00
8298;BME280;4187;42.778;23.242;2023-05-10T00:24:47;95536.03;;;9.71;100.00
8298;BME280;4187;42.778;23.242;2023-05-10T00:27:15;95540.88;;;9.66;100.00
8298;BME280;4187;42.778;23.242;2023-05-10T00:29:42;95533.69;;;9.68;100.00
8298;BME280;4187;42.778;23.242;2023-05-10T00:32:09;95539.22;;;9.65;100.00
8298;BME280;4187;42.778;23.242;2023-05-10T00:34:36;95530.72;;;9.61;100.00
8298;BME280;4187;42.778;23.242;2023-05-10T00:41:12;95527.94;;;9.62;100.00
8298;BME280;4187;42.778;23.242;2023-05-10T00:43:39;95523.09;;;9.58;100.00
8298;BME280;4187;42.778;23.242;2023-05-10T00:46:06;95527.94;;;9.53;100.00
8298;BME280;4187;42.778;23.242;2023-05-10T00:48:34;95519.88;;;9.54;100.00
8298;BME280;4187;42.778;23.242;2023-05-10T00:51:01;95530.56;;;9.53;100.00
8298;BME280;4187;42.778;23.242;2023-05-10T00:53:30;95524.34;;;9.54;100.00
8298;BME280;4187;42.778;23.242;2023-05-10T00:55:57;95521.38;;;9.47;100.00
8298;BME280;4187;42.778;23.242;2023-05-10T00:58:27;95520.44;;;9.48;100.00
8298;BME280;4187;42.778;23.242;2023-05-10T01:00:56;95522.06;;;9.80;100.00
8298;BME280;4187;42.778;23.242;2023-05-10T01:03:24;95528.84;;;9.73;100.00
8298;BME280;4187;42.778;23.242;2023-05-10T01:05:51;95521.47;;;9.67;100.00
8298;BME280;4187;42.778;23.242;2023-05-10T01:08:18;95502.00;;;9.48;100.00
8298;BME280;4187;42.778;23.242;2023-05-10T01:10:46;95520.72;;;9.55;100.00
8298;BME280;4187;42.778;23.242;2023-05-10T01:13:27;95514.59;;;9.45;100.00
8298;BME280;4187;42.778;23.242;2023-05-10T01:15:59;95504.56;;;9.39;100.00
8298;BME280;4187;42.778;23.242;2023-05-10T01:18:28;95509.00;;;9.38;100.00
8298;BME280;4187;42.778;23.242;2023-05-10T01:21:03;95511.25;;;9.43;100.00
8298;BME280;4187;42.778;23.242;2023-05-10T01:24:15;95507.91;;;9.41;100.00
8298;BME280;4187;42.778;23.242;2023-05-10T01:27:01;95509.72;;;9.40;100.00
8298;BME280;4187;42.778;23.242;2023-05-10T01:29:47;95507.91;;;9.41;100.00
8298;BME280;4187;42.778;23.242;2023-05-10T01:32:27;95500.66;;;9.33;100.00
8298;BME280;4187;42.778;23.242;2023-05-10T01:35:00;95508.03;;;9.39;100.00
8298;BME280;4187;42.778;23.242;2023-05-10T01:37:33;95501.09;;;9.38;100.00
8298;BME280;4187;42.778;23.242;2023-05-10T01:40:09;95502.78;;;9.39;100.00
8298;BME280;4187;42.778;23.242;2023-05-10T01:42:44;95488.19;;;9.35;100.00
8298;BME280;4187;42.778;23.242;2023-05-10T01:45:18;95501.50;;;9.34;100.00
8298;BME280;4187;42.778;23.242;2023-05-10T01:47:51;95494.69;;;9.31;100.00
8298;BME280;4187;42.778;23.242;2023-05-10T01:50:23;95499.53;;;9.26;100.00
8298;BME280;4187;42.778;23.242;2023-05-10T01:52:55;95500.19;;;9.19;100.00
8298;BME280;4187;42.778;23.242;2023-05-10T01:55:25;95500.56;;;9.14;100.00
8298;BME280;4187;42.778;23.242;2023-05-10T01:58:01;95507.00;;;9.21;100.00
8298;BME280;4187;42.778;23.242;2023-05-10T02:00:29;95496.13;;;9.15;100.00
8298;BME280;4187;42.778;23.242;2023-05-10T02:03:00;95498.19;;;9.11;100.00
8298;BME280;4187;42.778;23.242;2023-05-10T02:05:32;95499.19;;;9.10;100.00
8298;BME280;4187;42.778;23.242;2023-05-10T02:08:00;95508.59;;;9.13;100.00
8298;BME280;4187;42.778;23.242;2023-05-10T02:10:28;95493.59;;;9.03;100.00
8298;BME280;4187;42.778;23.242;2023-05-10T02:12:58;95460.78;;;8.87;100.00
8298;BME280;4187;42.778;23.242;2023-05-10T02:15:26;95490.25;;;9.01;100.00
8298;BME280;4187;42.778;23.242;2023-05-10T02:17:55;95491.34;;;8.99;100.00
8298;BME280;4187;42.778;23.242;2023-05-10T02:20:25;95488.72;;;8.99;100.00
8298;BME280;4187;42.778;23.242;2023-05-10T02:22:54;95488.28;;;8.94;100.00
8298;BME280;4187;42.778;23.242;2023-05-10T02:25:23;95483.00;;;8.94;100.00
8298;BME280;4187;42.778;23.242;2023-05-10T02:34:35;95482.44;;;8.70;100.00
8298;BME280;4187;42.778;23.242;2023-05-10T02:39:47;95493.22;;;8.67;100.00
8298;BME280;4187;42.778;23.242;2023-05-10T02:42:17;95483.59;;;8.56;100.00
8298;BME280;4187;42.778;23.242;2023-05-10T02:44:47;95478.25;;;8.47;100.00
8298;BME280;4187;42.778;23.242;2023-05-10T02:51:05;95493.13;;;8.36;100.00
8298;BME280;4187;42.778;23.242;2023-05-10T02:53:34;95503.44;;;8.28;100.00
8298;BME280;4187;42.778;23.242;2023-05-10T02:56:05;95512.28;;;8.27;100.00
8298;BME280;4187;42.778;23.242;2023-05-10T02:58:36;95507.38;;;8.23;100.00
8298;BME280;4187;42.778;23.242;2023-05-10T03:01:03;95513.72;;;8.20;100.00
8298;BME280;4187;42.778;23.242;2023-05-10T03:03:30;95509.06;;;8.24;100.00
8298;BME280;4187;42.778;23.242;2023-05-10T03:05:57;95507.16;;;8.15;100.00
8298;BME280;4187;42.778;23.242;2023-05-10T03:08:26;95518.28;;;8.18;100.00
8298;BME280;4187;42.778;23.242;2023-05-10T03:11:01;95510.16;;;8.10;100.00
8298;BME280;4187;42.778;23.242;2023-05-10T03:13:39;95508.50;;;8.09;100.00
8298;BME280;4187;42.778;23.242;2023-05-10T03:16:12;95516.06;;;8.03;100.00
8298;BME280;4187;42.778;23.242;2023-05-10T03:18:44;95507.56;;;7.99;100.00
8298;BME280;4187;42.778;23.242;2023-05-10T03:21:17;95510.69;;;8.88;100.00
8298;BME280;4187;42.778;23.242;2023-05-10T03:23:52;95515.63;;;9.63;100.00
8298;BME280;4187;42.778;23.242;2023-05-10T03:26:25;95484.69;;;9.65;100.00
8298;BME280;4187;42.778;23.242;2023-05-10T03:28:52;95508.47;;;10.43;100.00
8298;BME280;4187;42.778;23.242;2023-05-10T03:31:20;95533.19;;;10.80;100.00
8298;BME280;4187;42.778;23.242;2023-05-10T03:33:47;95535.41;;;10.95;100.00
8298;BME280;4187;42.778;23.242;2023-05-10T03:36:14;95538.19;;;11.03;100.00
8298;BME280;4187;42.778;23.242;2023-05-10T03:38:41;95528.72;;;10.91;100.00
8298;BME280;4187;42.778;23.242;2023-05-10T03:41:09;95543.69;;;10.23;100.00
8298;BME280;4187;42.778;23.242;2023-05-10T03:43:36;95542.66;;;9.65;100.00
8298;BME280;4187;42.778;23.242;2023-05-10T03:46:04;95534.34;;;9.09;100.00
8298;BME280;4187;42.778;23.242;2023-05-10T03:48:32;95528.84;;;8.91;100.00
8298;BME280;4187;42.778;23.242;2023-05-10T03:50:59;95536.09;;;8.78;100.00
8298;BME280;4187;42.778;23.242;2023-05-10T03:53:27;95534.28;;;8.58;100.00
8298;BME280;4187;42.778;23.242;2023-05-10T03:55:53;95540.66;;;8.45;100.00
8298;BME280;4187;42.778;23.242;2023-05-10T03:58:22;95529.59;;;8.30;100.00
8298;BME280;4187;42.778;23.242;2023-05-10T04:00:48;95529.25;;;8.23;100.00
8298;BME280;4187;42.778;23.242;2023-05-10T04:03:15;95523.78;;;8.15;100.00
8298;BME280;4187;42.778;23.242;2023-05-10T04:05:43;95522.72;;;8.07;100.00
8298;BME280;4187;42.778;23.242;2023-05-10T04:08:10;95538.41;;;7.97;100.00
8298;BME280;4187;42.778;23.242;2023-05-10T04:10:38;95475.88;;;7.58;100.00
8298;BME280;4187;42.778;23.242;2023-05-10T04:13:05;95535.88;;;7.96;100.00
8298;BME280;4187;42.778;23.242;2023-05-10T04:15:33;95542.81;;;7.97;100.00
8298;BME280;4187;42.778;23.242;2023-05-10T04:18:00;95530.88;;;7.93;100.00
8298;BME280;4187;42.778;23.242;2023-05-10T04:20:27;95545.44;;;7.97;100.00
8298;BME280;4187;42.778;23.242;2023-05-10T04:22:54;95553.69;;;7.92;100.00
8298;BME280;4187;42.778;23.242;2023-05-10T04:25:21;95544.25;;;7.90;100.00
8298;BME280;4187;42.778;23.242;2023-05-10T04:27:47;95543.91;;;7.94;100.00
8298;BME280;4187;42.778;23.242;2023-05-10T04:30:14;95550.31;;;8.01;100.00
8298;BME280;4187;42.778;23.242;2023-05-10T04:32:43;95551.53;;;8.08;100.00
8298;BME280;4187;42.778;23.242;2023-05-10T04:35:10;95548.13;;;8.17;100.00
8298;BME280;4187;42.778;23.242;2023-05-10T04:37:36;95554.69;;;8.23;100.00
8298;BME280;4187;42.778;23.242;2023-05-10T04:40:04;95553.00;;;8.22;100.00
8298;BME280;4187;42.778;23.242;2023-05-10T04:42:31;95546.72;;;8.13;100.00
8298;BME280;4187;42.778;23.242;2023-05-10T04:44:58;95562.25;;;8.16;100.00
8298;BME280;4187;42.778;23.242;2023-05-10T04:47:25;95545.19;;;8.11;100.00
8298;BME280;4187;42.778;23.242;2023-05-10T04:49:53;95551.53;;;8.08;100.00
8298;BME280;4187;42.778;23.242;2023-05-10T04:52:20;95549.81;;;8.18;100.00
8298;BME280;4187;42.778;23.242;2023-05-10T04:54:46;95552.91;;;8.23;100.00
8298;BME280;4187;42.778;23.242;2023-05-10T04:57:13;95552.31;;;8.20;100.00
8298;BME280;4187;42.778;23.242;2023-05-10T04:59:40;95552.31;;;8.20;100.00
8298;BME280;4187;42.778;23.242;2023-05-10T05:02:07;95537.88;;;8.14;100.00
8298;BME280;4187;42.778;23.242;2023-05-10T05:04:34;95555.91;;;8.19;100.00
8298;BME280;4187;42.778;23.242;2023-05-10T05:07:02;95562.03;;;8.08;100.00
8298;BME280;4187;42.778;23.242;2023-05-10T05:09:29;95559.13;;;8.11;100.00
8298;BME280;4187;42.778;23.242;2023-05-10T05:11:57;95531.38;;;7.87;100.00
8298;BME280;4187;42.778;23.242;2023-05-10T05:14:24;95560.72;;;8.03;100.00
8298;BME280;4187;42.778;23.242;2023-05-10T05:16:51;95557.84;;;8.06;100.00
8298;BME280;4187;42.778;23.242;2023-05-10T05:19:18;95545.91;;;8.02;100.00
8298;BME280;4187;42.778;23.242;2023-05-10T05:21:45;95565.13;;;8.13;100.00
8298;BME280;4187;42.778;23.242;2023-05-10T05:24:13;95564.41;;;8.11;100.00
8298;BME280;4187;42.778;23.242;2023-05-10T05:26:40;95561.91;;;8.10;100.00
8298;BME280;4187;42.778;23.242;2023-05-10T05:29:06;95557.84;;;8.06;100.00
8298;BME280;4187;42.778;23.242;2023-05-10T05:31:33;95576.44;;;8.14;100.00
8298;BME280;4187;42.778;23.242;2023-05-10T05:34:00;95567.63;;;8.15;100.00
8298;BME280;4187;42.778;23.242;2023-05-10T05:36:27;95565.84;;;8.15;100.00
8298;BME280;4187;42.778;23.242;2023-05-10T05:38:54;95568.31;;;8.17;100.00
8298;BME280;4187;42.778;23.242;2023-05-10T05:41:22;95570.28;;;8.04;100.00
8298;BME280;4187;42.778;23.242;2023-05-10T05:43:49;95568.94;;;8.09;100.00
8298;BME280;4187;42.778;23.242;2023-05-10T05:46:16;95570.38;;;8.24;100.00
8298;BME280;4187;42.778;23.242;2023-05-10T05:48:43;95571.81;;;8.28;100.00
8298;BME280;4187;42.778;23.242;2023-05-10T05:51:09;95575.72;;;8.34;100.00
8298;BME280;4187;42.778;23.242;2023-05-10T05:53:36;95571.19;;;8.36;100.00
8298;BME280;4187;42.778;23.242;2023-05-10T05:56:04;95588.50;;;8.38;100.00
8298;BME280;4187;42.778;23.242;2023-05-10T05:58:32;95583.47;;;8.35;100.00
8298;BME280;4187;42.778;23.242;2023-05-10T06:00:59;95578.19;;;8.47;100.00
8298;BME280;4187;42.778;23.242;2023-05-10T06:03:26;95580.59;;;8.38;100.00
8298;BME280;4187;42.778;23.242;2023-05-10T06:05:52;95586.59;;;8.40;100.00
8298;BME280;4187;42.778;23.242;2023-05-10T06:08:19;95592.31;;;8.46;100.00
8298;BME280;4187;42.778;23.242;2023-05-10T06:10:46;95587.06;;;8.46;100.00
8298;BME280;4187;42.778;23.242;2023-05-10T06:13:13;95590.63;;;8.45;100.00
8298;BME280;4187;42.778;23.242;2023-05-10T06:15:41;95596.97;;;8.42;100.00
8298;BME280;4187;42.778;23.242;2023-05-10T06:18:08;95592.97;;;8.27;100.00
8298;BME280;4187;42.778;23.242;2023-05-10T06:20:35;95586.13;;;8.35;100.00
8298;BME280;4187;42.778;23.242;2023-05-10T06:23:02;95589.22;;;8.40;100.00
8298;BME280;4187;42.778;23.242;2023-05-10T06:25:29;95592.22;;;8.36;100.00
8298;BME280;4187;42.778;23.242;2023-05-10T06:27:56;95592.91;;;8.38;100.00
8298;BME280;4187;42.778;23.242;2023-05-10T06:30:24;95601.28;;;8.43;100.00
8298;BME280;4187;42.778;23.242;2023-05-10T06:32:54;95604.72;;;8.43;100.00
8298;BME280;4187;42.778;23.242;2023-05-10T06:35:21;95573.09;;;8.23;100.00
8298;BME280;4187;42.778;23.242;2023-05-10T06:37:49;95595.66;;;8.48;100.00
8298;BME280;4187;42.778;23.242;2023-05-10T06:40:16;95602.94;;;8.44;100.00
8298;BME280;4187;42.778;23.242;2023-05-10T06:42:43;95593.91;;;8.37;100.00
8298;BME280;4187;42.778;23.242;2023-05-10T06:45:12;95610.34;;;8.50;100.00
8298;BME280;4187;42.778;23.242;2023-05-10T06:47:38;95609.16;;;8.54;100.00
8298;BME280;4187;42.778;23.242;2023-05-10T06:50:08;95609.25;;;8.53;100.00
8298;BME280;4187;42.778;23.242;2023-05-10T06:52:35;95616.44;;;8.51;100.00
8298;BME280;4187;42.778;23.242;2023-05-10T06:55:01;95605.91;;;8.62;100.00
8298;BME280;4187;42.778;23.242;2023-05-10T06:57:28;95612.69;;;8.64;100.00
8298;BME280;4187;42.778;23.242;2023-05-10T06:59:55;95611.63;;;8.67;100.00
8298;BME280;4187;42.778;23.242;2023-05-10T07:02:22;95620.22;;;8.69;100.00
8298;BME280;4187;42.778;23.242;2023-05-10T07:04:49;95610.88;;;8.76;100.00
8298;BME280;4187;42.778;23.242;2023-05-10T07:07:18;95622.81;;;8.80;100.00
8298;BME280;4187;42.778;23.242;2023-05-10T07:09:45;95621.28;;;8.66;100.00
8298;BME280;4187;42.778;23.242;2023-05-10T07:12:12;95618.03;;;8.74;100.00
8298;BME280;4187;42.778;23.242;2023-05-10T07:14:39;95610.72;;;8.77;100.00
8298;BME280;4187;42.778;23.242;2023-05-10T07:17:05;95612.28;;;8.80;100.00
8298;BME280;4187;42.778;23.242;2023-05-10T07:19:32;95614.03;;;8.90;100.00
8298;BME280;4187;42.778;23.242;2023-05-10T07:21:59;95619.03;;;8.93;100.00
8298;BME280;4187;42.778;23.242;2023-05-10T07:24:27;95610.63;;;8.99;100.00
8298;BME280;4187;42.778;23.242;2023-05-10T07:26:54;95625.09;;;9.05;100.00
8298;BME280;4187;42.778;23.242;2023-05-10T07:29:21;95627.97;;;9.23;100.00
8298;BME280;4187;42.778;23.242;2023-05-10T07:31:48;95626.03;;;9.25;100.00
8298;BME280;4187;42.778;23.242;2023-05-10T07:34:14;95607.75;;;9.23;100.00
8298;BME280;4187;42.778;23.242;2023-05-10T07:36:41;95625.88;;;9.37;100.00
8298;BME280;4187;42.778;23.242;2023-05-10T07:39:08;95624.88;;;9.38;100.00
8298;BME280;4187;42.778;23.242;2023-05-10T07:41:36;95618.72;;;9.49;100.00
8298;BME280;4187;42.778;23.242;2023-05-10T07:44:04;95629.19;;;9.60;100.00
8298;BME280;4187;42.778;23.242;2023-05-10T07:46:31;95631.97;;;9.58;100.00
8298;BME280;4187;42.778;23.242;2023-05-10T07:48:58;95630.00;;;9.60;100.00
8298;BME280;4187;42.778;23.242;2023-05-10T07:51:25;95629.31;;;9.58;100.00
8298;BME280;4187;42.778;23.242;2023-05-10T07:53:51;95639.47;;;9.63;100.00
8298;BME280;4187;42.778;23.242;2023-05-10T07:56:23;95632.56;;;9.72;100.00
8298;BME280;4187;42.778;23.242;2023-05-10T07:58:54;95585.00;;;9.43;100.00
8298;BME280;4187;42.778;23.242;2023-05-10T08:01:21;95630.78;;;9.72;100.00
8298;BME280;4187;42.778;23.242;2023-05-10T08:03:48;95629.84;;;9.83;100.00
8298;BME280;4187;42.778;23.242;2023-05-10T08:06:16;95631.13;;;9.88;100.00
8298;BME280;4187;42.778;23.242;2023-05-10T08:08:45;95624.75;;;9.91;100.00
8298;BME280;4187;42.778;23.242;2023-05-10T08:11:14;95636.31;;;9.99;100.00
8298;BME280;4187;42.778;23.242;2023-05-10T08:13:41;95633.09;;;9.96;100.00
8298;BME280;4187;42.778;23.242;2023-05-10T08:16:09;95646.03;;;9.99;100.00
8298;BME280;4187;42.778;23.242;2023-05-10T08:18:37;95644.50;;;9.96;100.00
8298;BME280;4187;42.778;23.242;2023-05-10T08:21:04;95641.34;;;10.02;100.00
8298;BME280;4187;42.778;23.242;2023-05-10T08:23:31;95638.72;;;10.42;100.00
8298;BME280;4187;42.778;23.242;2023-05-10T08:25:57;95642.88;;;10.45;100.00
8298;BME280;4187;42.778;23.242;2023-05-10T08:28:24;95617.41;;;10.15;100.00
8298;BME280;4187;42.778;23.242;2023-05-10T08:30:51;95650.16;;;10.22;100.00
8298;BME280;4187;42.778;23.242;2023-05-10T08:33:19;95649.69;;;10.07;100.00
8298;BME280;4187;42.778;23.242;2023-05-10T08:35:46;95643.06;;;10.13;100.00
8298;BME280;4187;42.778;23.242;2023-05-10T08:38:13;95642.72;;;10.27;100.00
8298;BME280;4187;42.778;23.242;2023-05-10T08:40:41;95646.03;;;10.29;100.00
8298;BME280;4187;42.778;23.242;2023-05-10T08:43:10;95630.75;;;10.23;100.00
8298;BME280;4187;42.778;23.242;2023-05-10T08:45:38;95646.19;;;10.37;100.00
8298;BME280;4187;42.778;23.242;2023-05-10T08:48:06;95644.25;;;10.39;100.00
8298;BME280;4187;42.778;23.242;2023-05-10T08:50:35;95616.97;;;10.19;100.00
8298;BME280;4187;42.778;23.242;2023-05-10T08:53:04;95649.63;;;10.28;100.00
8298;BME280;4187;42.778;23.242;2023-05-10T08:55:32;95644.59;;;10.15;100.00
8298;BME280;4187;42.778;23.242;2023-05-10T08:58:02;95648.84;;;10.07;100.00
8298;BME280;4187;42.778;23.242;2023-05-10T09:00:28;95648.50;;;10.21;100.00
8298;BME280;4187;42.778;23.242;2023-05-10T09:02:57;95645.72;;;10.23;100.00
8298;BME280;4187;42.778;23.242;2023-05-10T09:05:24;95645.47;;;10.26;100.00
8298;BME280;4187;42.778;23.242;2023-05-10T09:07:52;95658.38;;;10.29;100.00
8298;BME280;4187;42.778;23.242;2023-05-10T09:10:19;95654.47;;;10.23;100.00
8298;BME280;4187;42.778;23.242;2023-05-10T09:12:48;95655.28;;;10.14;100.00
8298;BME280;4187;42.778;23.242;2023-05-10T09:15:16;95651.53;;;10.16;100.00
8298;BME280;4187;42.778;23.242;2023-05-10T09:17:44;95653.22;;;10.17;100.00
8298;BME280;4187;42.778;23.242;2023-05-10T09:20:12;95654.22;;;10.26;100.00
8298;BME280;4187;42.778;23.242;2023-05-10T09:22:38;95652.50;;;10.15;100.00
8298;BME280;4187;42.778;23.242;2023-05-10T09:25:08;95647.53;;;10.22;100.00
8298;BME280;4187;42.778;23.242;2023-05-10T09:27:36;95653.09;;;10.19;100.00
8298;BME280;4187;42.778;23.242;2023-05-10T09:30:05;95646.13;;;10.18;100.00
8298;BME280;4187;42.778;23.242;2023-05-10T09:32:39;95660.03;;;10.20;100.00
8298;BME280;4187;42.778;23.242;2023-05-10T09:35:07;95651.22;;;10.10;100.00
8298;BME280;4187;42.778;23.242;2023-05-10T09:37:34;95642.69;;;9.97;100.00
8298;BME280;4187;42.778;23.242;2023-05-10T09:40:04;95642.47;;;10.09;100.00
8298;BME280;4187;42.778;23.242;2023-05-10T09:42:33;95647.66;;;10.20;100.00
8298;BME280;4187;42.778;23.242;2023-05-10T09:45:01;95613.13;;;10.24;100.00
8298;BME280;4187;42.778;23.242;2023-05-10T09:47:29;95638.28;;;10.47;100.00
8298;BME280;4187;42.778;23.242;2023-05-10T09:49:57;95631.91;;;10.49;100.00
8298;BME280;4187;42.778;23.242;2023-05-10T09:52:28;95630.28;;;10.58;100.00
8298;BME280;4187;42.778;23.242;2023-05-10T09:54:55;95647.06;;;10.47;100.00
8298;BME280;4187;42.778;23.242;2023-05-10T09:57:23;95645.41;;;10.56;100.00
8298;BME280;4187;42.778;23.242;2023-05-10T09:59:52;95628.19;;;10.71;100.00
8298;BME280;4187;42.778;23.242;2023-05-10T10:02:19;95626.81;;;10.76;100.00
8298;BME280;4187;42.778;23.242;2023-05-10T10:04:52;95631.69;;;10.91;100.00
8298;BME280;4187;42.778;23.242;2023-05-10T10:07:23;95625.31;;;10.93;100.00
8298;BME280;4187;42.778;23.242;2023-05-10T10:09:53;95597.22;;;10.82;100.00
8298;BME280;4187;42.778;23.242;2023-05-10T10:12:20;95618.38;;;11.02;100.00
8298;BME280;4187;42.778;23.242;2023-05-10T10:14:47;95619.19;;;11.12;100.00
8298;BME280;4187;42.778;23.242;2023-05-10T10:17:17;95593.22;;;11.07;100.00
8298;BME280;4187;42.778;23.242;2023-05-10T10:19:45;95613.19;;;11.19;100.00
8298;BME280;4187;42.778;23.242;2023-05-10T10:22:13;95619.44;;;11.28;100.00
8298;BME280;4187;42.778;23.242;2023-05-10T10:24:41;95608.75;;;11.29;100.00
8298;BME280;4187;42.778;23.242;2023-05-10T10:27:18;95617.38;;;11.31;100.00
8298;BME280;4187;42.778;23.242;2023-05-10T10:29:52;95615.41;;;11.43;100.00
8298;BME280;4187;42.778;23.242;2023-05-10T10:32:32;95610.13;;;11.43;100.00
8298;BME280;4187;42.778;23.242;2023-05-10T10:35:02;95614.16;;;11.47;100.00
8298;BME280;4187;42.778;23.242;2023-05-10T10:37:50;95619.72;;;11.54;100.00
8298;BME280;4187;42.778;23.242;2023-05-10T10:40:24;95609.25;;;11.71;100.00
8298;BME280;4187;42.778;23.242;2023-05-10T10:42:52;95612.03;;;11.60;100.00
8298;BME280;4187;42.778;23.242;2023-05-10T10:45:20;95582.03;;;11.42;100.00
8298;BME280;4187;42.778;23.242;2023-05-10T10:47:50;95621.22;;;11.75;100.00
8298;BME280;4187;42.778;23.242;2023-05-10T10:50:20;95622.59;;;11.79;100.00
8298;BME280;4187;42.778;23.242;2023-05-10T10:52:47;95630.38;;;11.81;100.00
8298;BME280;4187;42.778;23.242;2023-05-10T10:55:17;95621.06;;;11.67;100.00
8298;BME280;4187;42.778;23.242;2023-05-10T10:57:46;95618.19;;;11.70;100.00
8298;BME280;4187;42.778;23.242;2023-05-10T11:00:21;95612.44;;;11.65;100.00
8298;BME280;4187;42.778;23.242;2023-05-10T11:02:51;95624.72;;;11.57;100.00
8298;BME280;4187;42.778;23.242;2023-05-10T11:05:45;95623.88;;;11.56;100.00
8298;BME280;4187;42.778;23.242;2023-05-10T11:08:18;95623.84;;;11.66;100.00
8298;BME280;4187;42.778;23.242;2023-05-10T11:11:06;95612.75;;;11.62;100.00
8298;BME280;4187;42.778;23.242;2023-05-10T11:13:34;95602.44;;;11.69;100.00
8298;BME280;4187;42.778;23.242;2023-05-10T11:16:14;95599.38;;;11.64;100.00
8298;BME280;4187;42.778;23.242;2023-05-10T11:18:54;95605.88;;;11.79;100.00
8298;BME280;4187;42.778;23.242;2023-05-10T11:21:23;95606.69;;;11.89;100.00
8298;BME280;4187;42.778;23.242;2023-05-10T11:23:51;95603.78;;;11.92;100.00
8298;BME280;4187;42.778;23.242;2023-05-10T11:26:21;95580.00;;;11.82;100.00
8298;BME280;4187;42.778;23.242;2023-05-10T11:28:51;95608.28;;;12.09;100.00
8298;BME280;4187;42.778;23.242;2023-05-10T11:31:19;95607.09;;;11.94;100.00
8298;BME280;4187;42.778;23.242;2023-05-10T11:33:50;95603.63;;;11.93;100.00
8298;BME280;4187;42.778;23.242;2023-05-10T11:36:19;95617.88;;;12.10;100.00
8298;BME280;4187;42.778;23.242;2023-05-10T11:38:47;95583.28;;;11.94;100.00
8298;BME280;4187;42.778;23.242;2023-05-10T11:41:15;95624.69;;;12.13;100.00
8298;BME280;4187;42.778;23.242;2023-05-10T11:43:46;95619.63;;;12.19;100.00
8298;BME280;4187;42.778;23.242;2023-05-10T11:46:14;95607.78;;;12.23;100.00
8298;BME280;4187;42.778;23.242;2023-05-10T11:48:42;95617.41;;;12.24;100.00
8298;BME280;4187;42.778;23.242;2023-05-10T11:51:10;95614.34;;;12.19;100.00
8298;BME280;4187;42.778;23.242;2023-05-10T11:53:39;95617.44;;;12.15;100.00
8298;BME280;4187;42.778;23.242;2023-05-10T11:56:06;95547.47;;;11.63;100.00
8298;BME280;4187;42.778;23.242;2023-05-10T11:58:35;95612.03;;;12.07;100.00
8298;BME280;4187;42.778;23.242;2023-05-10T12:01:03;95619.31;;;12.05;100.00
8298;BME280;4187;42.778;23.242;2023-05-10T12:03:30;95608.44;;;12.08;100.00
8298;BME280;4187;42.778;23.242;2023-05-10T12:05:58;95613.56;;;12.09;100.00
8298;BME280;4187;42.778;23.242;2023-05-10T12:08:26;95603.38;;;12.14;100.00
8298;BME280;4187;42.778;23.242;2023-05-10T12:11:05;95613.16;;;12.14;100.00
8298;BME280;4187;42.778;23.242;2023-05-10T12:13:37;95604.41;;;12.04;100.00
8298;BME280;4187;42.778;23.242;2023-05-10T12:16:15;95574.69;;;11.82;100.00
8298;BME280;4187;42.778;23.242;2023-05-10T12:18:43;95610.72;;;11.93;100.00
8298;BME280;4187;42.778;23.242;2023-05-10T12:21:10;95596.81;;;11.91;100.00
8298;BME280;4187;42.778;23.242;2023-05-10T12:23:38;95592.78;;;11.87;100.00
8298;BME280;4187;42.778;23.242;2023-05-10T12:26:09;95596.34;;;11.95;100.00
8298;BME280;4187;42.778;23.242;2023-05-10T12:28:37;95592.00;;;12.04;100.00
8298;BME280;4187;42.778;23.242;2023-05-10T12:31:05;95594.38;;;12.07;100.00
8298;BME280;4187;42.778;23.242;2023-05-10T12:33:36;95598.25;;;12.13;100.00
8298;BME280;4187;42.778;23.242;2023-05-10T12:36:05;95579.56;;;12.14;100.00
8298;BME280;4187;42.778;23.242;2023-05-10T12:38:34;95568.97;;;11.87;100.00
8298;BME280;4187;42.778;23.242;2023-05-10T12:41:06;95592.94;;;11.85;100.00
8298;BME280;4187;42.778;23.242;2023-05-10T12:43:35;95586.41;;;11.80;100.00
8298;BME280;4187;42.778;23.242;2023-05-10T12:46:05;95542.72;;;11.66;100.00
8298;BME280;4187;42.778;23.242;2023-05-10T12:48:32;95586.78;;;11.94;100.00
8298;BME280;4187;42.778;23.242;2023-05-10T12:51:00;95578.13;;;11.92;100.00
8298;BME280;4187;42.778;23.242;2023-05-10T12:53:27;95573.56;;;11.85;100.00
8298;BME280;4187;42.778;23.242;2023-05-10T12:55:54;95576.31;;;11.93;100.00
8298;BME280;4187;42.778;23.242;2023-05-10T12:58:20;95574.84;;;11.81;100.00
8298;BME280;4187;42.778;23.242;2023-05-10T13:00:49;95561.28;;;11.93;100.00
8298;BME280;4187;42.778;23.242;2023-05-10T13:03:17;95578.69;;;11.96;100.00
8298;BME280;4187;42.778;23.242;2023-05-10T13:05:45;95578.97;;;11.93;100.00
8298;BME280;4187;42.778;23.242;2023-05-10T13:08:12;95559.63;;;11.92;100.00
8298;BME280;4187;42.778;23.242;2023-05-10T13:10:38;95563.59;;;12.06;100.00
8298;BME280;4187;42.778;23.242;2023-05-10T13:13:05;95553.00;;;12.06;100.00
8298;BME280;4187;42.778;23.242;2023-05-10T13:15:32;95557.44;;;12.15;100.00
8298;BME280;4187;42.778;23.242;2023-05-10T13:18:01;95551.75;;;12.10;100.00
8298;BME280;4187;42.778;23.242;2023-05-10T13:20:28;95543.13;;;12.08;100.00
8298;BME280;4187;42.778;23.242;2023-05-10T13:22:54;95540.88;;;12.13;100.00
8298;BME280;4187;42.778;23.242;2023-05-10T13:25:21;95481.56;;;11.88;100.00
8298;BME280;4187;42.778;23.242;2023-05-10T13:27:48;95538.16;;;12.23;100.00
8298;BME280;4187;42.778;23.242;2023-05-10T13:30:15;95536.91;;;12.27;100.00
8298;BME280;4187;42.778;23.242;2023-05-10T13:32:42;95536.81;;;12.36;100.00
8298;BME280;4187;42.778;23.242;2023-05-10T13:35:10;95537.75;;;12.45;100.00
8298;BME280;4187;42.778;23.242;2023-05-10T13:37:37;95538.03;;;12.42;100.00
8298;BME280;4187;42.778;23.242;2023-05-10T13:40:05;95527.97;;;12.28;100.00